Amity, Oregon
Current Conditions -  °F | °C
As of 7:23 AM on Saturday 25 Oct 2014 (Local Time) from KMMV Reporting Station
Overcast Overcast  
Wind Chill: 51°   Ceiling: 700
Heat Index: 51°   Visibility: 10mi
Dew Point: 49°   Wind: 13mph
Humidity: 92%   Direction: 100°E
Pressure: 29.52"   Gusts: NA
Location:  45.12°N, 123.21°W
Report Text: KMMV 251423Z AUTO 10011KT 10SM BKN007 BKN023 OVC090 11/09 A2952 RMK AO2 RAE16 CIG 005V009 PRESFR P0000 T01060094
Loading
Personal Weather Stations






























Interactive Weather Map
Tropical Storm Tracking
New forecast layout! Learn more

10-Day Weather Forecast

Advertisements
Track Severe Weather on mobile